[source: ADDS]
METAR
TAF EDVE 191700Z 1918/1921 09007KT CAVOK EDDV 200250Z VRB01KT CAVOK 11/10 Q1004

TAF EDDV 192300Z 2000/2024 04005KT 9999 SCT035 PROB30 TEMPO 2002/2008 3500 BR BKN013 PROB30 TEMPO 2014/2024 08015G30KT TSRA BKN014 SCT035CB ETHS 200300Z 07006KT 3500 BR BKN002 13/12 Q1004 AMB

ETHC 200220Z 34002KT 9999 BKN260 13/12 Q1004 BLU+

EDVK 200250Z VRB01KT 9999 FEW011 11/10 Q1004

TAF EDVK 192000Z 1921/2003 33004KT CAVOK TEMPO 2000/2003 1200 BCFG
TAF
TAF EDVE 191700Z 1918/1921 09007KT CAVOK

TAF EDDV 192300Z 2000/2024 04005KT 9999 SCT035 PROB30 TEMPO 2002/2008 3500 BR BKN013 PROB30 TEMPO 2014/2024 08015G30KT TSRA BKN014 SCT035CB

TAF EDVK 192000Z 1921/2003 33004KT CAVOK TEMPO 2000/2003 1200 BCFG

SR / SS: 03:15 / 19:12 UTC (EDVE 2019-05-20)
Mathias und Stefan haben die theoretische Prüfung bestanden! Herzlichen Glückwunsch und weiterhin viel Erfolg für die restliche Ausbildung! +++ Herzlich Willkommen in der FFG Jan! +++ Miro hat seine Praktische Prüfung bestanden! Herzlichen Glückwunsch und Always Happy Landings! +++ Stefan hat sich freigeflogen. Herzlichen Glückwunsch und weiterhin always happy landings! +++ David und Christian haben die Nachtflugberechtigung erhalten. Herzlichen Glückwunsch und viel Spaß beim Erleben der Faszination "Nachtflug"! +++ Hallo Florian! Willkommen im Verein und viel Erfolg für deine Ausbildung! +++ Maximilian hat sich freigeflogen! Herzlichen Glückwunsch und weiter so! +++ Hallo und herzlich Willkommen Hong! Viel Spaß bei deiner Ausbildung! +++ Herzlich Willkommen im Verein Falk und viel Erfolg für deine weitere Ausbildung! +++ Tibor hat die Theorieprüfung bestanden! Herzlichen Glückwunsch und weiterhin viel Erfolg! +++ Hallo Carsten! Willkommen in der FFG und viel Spaß bei der Ausbildung! +++ Wir begrüßen Shanna nun als Vollmitglied. Viel Spass beim Fliegen!

wenig -> mittel -> viel

Professionelle Piloten arbeiten mit Checkliste
Ausdrucken und abarbeiten! Vorbereitete Links helfen bei der Beschaffung der notwendigen Informationen.

Weiterlesen ...

 Zugang zur DFS. Auf dem FFG-Account sind alle erforderlichen Daten unserer Maschinen hinterlegt. Jedes Mitglied hat hier volle Rechte! Zugangsdaten gibt es im Internen Bereich.

Hier gibt es die AIP mit allen erforderlichen Karten die im Abo der FFG liegen zum Download für unsere Mitglieder.

Letztes NOTAM EDVE
von 15.05.2019 1010Z bis 22.05.2019 2359Z
DUE TO OUTAGE OF DLE DVOR/DME THE FLW CHANGES TO SID OCCUR: GPS/FMS RNAV OVERLAY REMAIN UNCHANGED. AMEND DLE DVOR/DME TO READ DLE INT. [more]

Letztes NOTAM EDBC
von 02.05.2019 1303Z bis 01.08.2019 2359Z
ILS RWY 26 OUT OF SERVICE.

Letztes NOTAM EDVM
von 29.04.2019 1530Z bis 28.07.2019 2359Z
HILDESHEIM INFO FREQ CHANGED TO 118.310 (8.33KHZ).

Letztes NOTAM EDOV
von 20.05.2019 0309Z bis 24.05.2019 1916Z
DAILY SR-SS
UNMANNED AIR VEHICLE (UAV) MTOW MORE THAN 150KG, MAX HEIGHT 350FT AGL, WITHIN AREA OF AIRFIELD.
GND- 350FT AGL
[more]


Letztes NOTAM EDDV
von 28.05.2019 0700Z bis 28.05.2019 1500Z
ILS RWY 09R 108.70MHZ / CHA 24X DME PART ON MAINT, DO NOT USE, FALSE INDICATION POSS.

Letztes NOTAM EDVK
von 12.05.2019 1629Z bis 26.05.2019 2200Z
VFR TRAINING FLIGHTS ACFT MTOM MORE THAN 15T PPR. CONTACT + 49 (0) 5674 2153170.

          aerodata150     Radio38